Solo Tu — ZJL8310 — position and weather

sailwx.info

Track history (hours):
 
Tides and Currents Weather Stations Pressure Air Temp Water Temp Dewpoint Dewpoint Depression Visibility Wind Speed Wind Dir Waves Ship Positions

Solo Tu

Last reported at 2015-Jan-24 19:31 UTC. Time now 2015-Jan-28 01:30 UTC.
Position N 18°23' W 064°33'.

Length 28 m; draft 2 m.

Type: Pleasure craft. MMSI: 378315000.

Date/timePositionNaut miles runAvg speedWind from/ knotsBaromVisibWave heightAir tempDewpointWater temp
2015-Jan-24 19:31N 18°23' W 064°33'6 0.2
2015-Jan-23 13:22N 18°20' W 064°38'7 9.2
2015-Jan-23 12:33N 18°26' W 064°44'1 0.8
2015-Jan-23 11:28N 18°26' W 064°44'0 0.0
2015-Jan-23 10:28N 18°26' W 064°44'0 0.0
2015-Jan-23 09:28N 18°26' W 064°44'0 0.0
2015-Jan-23 08:28N 18°26' W 064°44'0 0.0
2015-Jan-23 07:28N 18°26' W 064°44'0 0.0
2015-Jan-23 06:22N 18°26' W 064°44'0 0.0
2015-Jan-23 05:25N 18°26' W 064°44'0 0.0
2015-Jan-23 04:25N 18°26' W 064°44'0 0.0
2015-Jan-23 03:25N 18°26' W 064°44'0 0.0
2015-Jan-23 02:22N 18°26' W 064°44'0 0.0
2015-Jan-23 00:07N 18°26' W 064°44'0 0.0
2015-Jan-22 22:25N 18°26' W 064°44'0 0.0
2015-Jan-22 21:31N 18°26' W 064°44'0 0.0
2015-Jan-22 19:17N 18°26' W 064°44'1 1.4
2015-Jan-22 18:29N 18°26' W 064°45'0 0.0
2015-Jan-22 17:29N 18°26' W 064°45'0 0.0
2015-Jan-22 16:33N 18°26' W 064°45'0 0.0
2015-Jan-22 15:33N 18°26' W 064°45'2 2.1
2015-Jan-22 14:34N 18°24' W 064°45'2 2.4
2015-Jan-22 13:33N 18°22' W 064°45'0 0.0
2015-Jan-22 12:33N 18°22' W 064°45'0 0.0
2015-Jan-22 11:33N 18°22' W 064°45'0 0.0
2015-Jan-22 10:33N 18°22' W 064°45'0 0.0
2015-Jan-22 09:33N 18°22' W 064°45'0 0.0
2015-Jan-22 08:33N 18°22' W 064°45'0 0.0
2015-Jan-22 07:33N 18°22' W 064°45'0 0.0
2015-Jan-22 06:33N 18°22' W 064°45'0 0.0
2015-Jan-22 05:21N 18°22' W 064°45'0 0.0
2015-Jan-22 04:33N 18°22' W 064°45'0 0.0
2015-Jan-22 03:33N 18°22' W 064°45'0 0.0
2015-Jan-22 02:33N 18°22' W 064°45'0 0.0
2015-Jan-22 01:33N 18°22' W 064°45'0 0.0
2015-Jan-22 00:33N 18°22' W 064°45'0 0.0
2015-Jan-21 23:33N 18°22' W 064°45'0 0.0
2015-Jan-21 22:45N 18°22' W 064°45'0 0.0
2015-Jan-21 22:33N 18°22' W 064°45'0 0.0
2015-Jan-21 21:33N 18°22' W 064°45'0 0.0
2015-Jan-21 20:33N 18°22' W 064°45'0 0.0
2015-Jan-21 19:33N 18°22' W 064°45'0 0.0
2015-Jan-21 18:33N 18°22' W 064°45'0 0.0
2015-Jan-21 17:33N 18°22' W 064°45'0 0.0
2015-Jan-21 16:33N 18°22' W 064°45'5 5.1
2015-Jan-21 15:33N 18°19' W 064°50'  
2015-Jan-18 16:08N 18°18' W 064°53'1710.5
2015-Jan-18 14:31N 18°22' W 064°36'  
Track history (hours):
 
Tides and Currents Weather Stations Pressure Air Temp Water Temp Dewpoint Dewpoint Depression Visibility Wind Speed Wind Dir Waves Ship Positions

Solo Tu

Last reported at 2015-Jan-24 19:31 UTC. Time now 2015-Jan-28 01:30 UTC.
Position N 18°23' W 064°33'.

Length 28 m; draft 2 m.

Type: Pleasure craft. MMSI: 378315000.

Date/timePositionNaut miles runAvg speedWind from/ knotsBaromVisibWave heightAir tempDewpointWater temp
2015-Jan-24 19:31N 18°23' W 064°33'6 0.2
2015-Jan-23 13:22N 18°20' W 064°38'7 9.2
2015-Jan-23 12:33N 18°26' W 064°44'1 0.8
2015-Jan-23 11:28N 18°26' W 064°44'0 0.0
2015-Jan-23 10:28N 18°26' W 064°44'0 0.0
2015-Jan-23 09:28N 18°26' W 064°44'0 0.0
2015-Jan-23 08:28N 18°26' W 064°44'0 0.0
2015-Jan-23 07:28N 18°26' W 064°44'0 0.0
2015-Jan-23 06:22N 18°26' W 064°44'0 0.0
2015-Jan-23 05:25N 18°26' W 064°44'0 0.0
2015-Jan-23 04:25N 18°26' W 064°44'0 0.0
2015-Jan-23 03:25N 18°26' W 064°44'0 0.0
2015-Jan-23 02:22N 18°26' W 064°44'0 0.0
2015-Jan-23 00:07N 18°26' W 064°44'0 0.0
2015-Jan-22 22:25N 18°26' W 064°44'0 0.0
2015-Jan-22 21:31N 18°26' W 064°44'0 0.0
2015-Jan-22 19:17N 18°26' W 064°44'1 1.4
2015-Jan-22 18:29N 18°26' W 064°45'0 0.0
2015-Jan-22 17:29N 18°26' W 064°45'0 0.0
2015-Jan-22 16:33N 18°26' W 064°45'0 0.0
2015-Jan-22 15:33N 18°26' W 064°45'2 2.1
2015-Jan-22 14:34N 18°24' W 064°45'2 2.4
2015-Jan-22 13:33N 18°22' W 064°45'0 0.0
2015-Jan-22 12:33N 18°22' W 064°45'0 0.0
2015-Jan-22 11:33N 18°22' W 064°45'0 0.0
2015-Jan-22 10:33N 18°22' W 064°45'0 0.0
2015-Jan-22 09:33N 18°22' W 064°45'0 0.0
2015-Jan-22 08:33N 18°22' W 064°45'0 0.0
2015-Jan-22 07:33N 18°22' W 064°45'0 0.0
2015-Jan-22 06:33N 18°22' W 064°45'0 0.0
2015-Jan-22 05:21N 18°22' W 064°45'0 0.0
2015-Jan-22 04:33N 18°22' W 064°45'0 0.0
2015-Jan-22 03:33N 18°22' W 064°45'0 0.0
2015-Jan-22 02:33N 18°22' W 064°45'0 0.0
2015-Jan-22 01:33N 18°22' W 064°45'0 0.0
2015-Jan-22 00:33N 18°22' W 064°45'0 0.0
2015-Jan-21 23:33N 18°22' W 064°45'0 0.0
2015-Jan-21 22:45N 18°22' W 064°45'0 0.0
2015-Jan-21 22:33N 18°22' W 064°45'0 0.0
2015-Jan-21 21:33N 18°22' W 064°45'0 0.0
2015-Jan-21 20:33N 18°22' W 064°45'0 0.0
2015-Jan-21 19:33N 18°22' W 064°45'0 0.0
2015-Jan-21 18:33N 18°22' W 064°45'0 0.0
2015-Jan-21 17:33N 18°22' W 064°45'0 0.0
2015-Jan-21 16:33N 18°22' W 064°45'5 5.1
2015-Jan-21 15:33N 18°19' W 064°50'  
2015-Jan-18 16:08N 18°18' W 064°53'1710.5
2015-Jan-18 14:31N 18°22' W 064°36'  

Dump ship's entire track history